Terminal Aerodrome Forecast
Issued by NWS Upton, NY

Home | Current Version | Previous Version | Text Only | Print | Product List | Glossary On
Versions: 1 2 3 4 5 6 7 8 9 10 11 12 13 14 15 16 17 18 19 20 21 22 23 24 25 26 27 28 29 30 31 32 33 34 35 36 37
000
FTUS41 KOKX 231733
TAFISP
TAF
KISP 231733Z 2318/2418 10010KT P6SM VCSH OVC013
      TEMPO 2318/2322 4SM -RA BR BKN008 OVC013
     FM232200 14005KT 2SM -RA BR OVC006
      TEMPO 2322/2401 1SM -RA BR OVC003
     FM240300 23005KT 3SM -RA BR OVC005 WS020/27035KT
     FM240800 26005KT 5SM BR OVC008
     FM241100 29005KT P6SM OVC012
     FM241500 32006KT P6SM FEW020 OVC080=

USA.gov is the U.S. government's official web portal to all federal, state and local government web resources and services.